DLH36E EDDF-LFPG
Flight info
| Callsign | DLH36E |
|---|---|
| Flight time | N/A |
| Altitude | 24000 |
| Route | SOBRA2L SOBRA Y180 DIK UN857 TOLVU/N0367F230 DCT RAPOR DCT VEDUS |
| Aircraft | A319/M-SDE2E3FGIJ1LORWXYZ/HB1 |
Departure
| Time | 2026-05-03 21:02 |
|---|---|
| Airport | Frankfurt Main Airport (EDDF) |
Arrival
| Time | N/A |
|---|---|
| Airport | Charles de Gaulle International Airport (LFPG) |
| Time | Latitude | Longitude | Altitude | Speed | Heading |
|---|---|---|---|---|---|
| 2026-05-03 20:45 | 50.04853 | 8.58900 | 365 ft | 0 kts | 340° |
| 2026-05-03 20:50 | 50.04842 | 8.58906 | 368 ft | 4 kts | 340° |
| 2026-05-03 20:50 | 50.04836 | 8.58909 | 367 ft | 0 kts | 340° |
| 2026-05-03 20:50 | 50.04835 | 8.58910 | 367 ft | 4 kts | 340° |
| 2026-05-03 20:51 | 50.04809 | 8.58925 | 368 ft | 4 kts | 340° |
| 2026-05-03 20:51 | 50.04784 | 8.58939 | 370 ft | 4 kts | 340° |
| 2026-05-03 20:51 | 50.04778 | 8.58943 | 369 ft | 0 kts | 340° |
| 2026-05-03 20:54 | 50.04781 | 8.58938 | 368 ft | 2 kts | 321° |
| 2026-05-03 20:55 | 50.04776 | 8.58904 | 368 ft | 5 kts | 236° |
| 2026-05-03 20:55 | 50.04746 | 8.58836 | 368 ft | 10 kts | 239° |
| 2026-05-03 20:55 | 50.04713 | 8.58725 | 371 ft | 14 kts | 247° |
| 2026-05-03 20:55 | 50.04674 | 8.58569 | 369 ft | 16 kts | 250° |
| 2026-05-03 20:56 | 50.04630 | 8.58382 | 369 ft | 20 kts | 250° |
| 2026-05-03 20:56 | 50.04577 | 8.58162 | 366 ft | 25 kts | 249° |
| 2026-05-03 20:56 | 50.04515 | 8.57905 | 364 ft | 25 kts | 250° |
| 2026-05-03 20:56 | 50.04455 | 8.57650 | 385 ft | 25 kts | 250° |
| 2026-05-03 20:57 | 50.04391 | 8.57385 | 363 ft | 26 kts | 249° |
| 2026-05-03 20:57 | 50.04329 | 8.57124 | 361 ft | 26 kts | 249° |
| 2026-05-03 20:57 | 50.04265 | 8.56855 | 362 ft | 27 kts | 250° |
| 2026-05-03 20:57 | 50.04198 | 8.56574 | 355 ft | 29 kts | 250° |
| 2026-05-03 20:58 | 50.04129 | 8.56287 | 354 ft | 27 kts | 249° |
| 2026-05-03 20:58 | 50.04063 | 8.56008 | 355 ft | 28 kts | 250° |
| 2026-05-03 20:58 | 50.03995 | 8.55725 | 349 ft | 28 kts | 250° |
| 2026-05-03 20:58 | 50.03928 | 8.55443 | 353 ft | 27 kts | 249° |
| 2026-05-03 20:59 | 50.03864 | 8.55179 | 356 ft | 26 kts | 249° |
| 2026-05-03 20:59 | 50.03800 | 8.54911 | 352 ft | 27 kts | 250° |
| 2026-05-03 20:59 | 50.03734 | 8.54634 | 351 ft | 28 kts | 250° |
| 2026-05-03 20:59 | 50.03664 | 8.54343 | 348 ft | 29 kts | 250° |
| 2026-05-03 21:00 | 50.03594 | 8.54052 | 341 ft | 29 kts | 250° |
| 2026-05-03 21:00 | 50.03549 | 8.53861 | 336 ft | 28 kts | 249° |
| 2026-05-03 21:00 | 50.03465 | 8.53508 | 339 ft | 24 kts | 250° |
| 2026-05-03 21:00 | 50.03410 | 8.53277 | 337 ft | 22 kts | 249° |
| 2026-05-03 21:01 | 50.03357 | 8.53056 | 332 ft | 22 kts | 249° |
| 2026-05-03 21:01 | 50.03301 | 8.52824 | 334 ft | 22 kts | 249° |
| 2026-05-03 21:01 | 50.03257 | 8.52649 | 334 ft | 15 kts | 241° |
| 2026-05-03 21:01 | 50.03167 | 8.52595 | 336 ft | 15 kts | 179° |
| 2026-05-03 21:02 | 50.02948 | 8.52598 | 336 ft | 67 kts | 180° |
| 2026-05-03 21:02 | 50.02223 | 8.52605 | 335 ft | 138 kts | 179° |
| 2026-05-03 21:02 | 50.01150 | 8.52617 | 748 ft | 156 kts | 181° |
| 2026-05-03 21:02 | 50.00060 | 8.52657 | 1487 ft | 157 kts | 181° |
| 2026-05-03 21:03 | 49.98916 | 8.52725 | 2013 ft | 175 kts | 182° |
| 2026-05-03 21:03 | 49.97623 | 8.52802 | 2424 ft | 199 kts | 182° |
| 2026-05-03 21:03 | 49.96155 | 8.52888 | 2955 ft | 220 kts | 183° |
| 2026-05-03 21:03 | 49.94597 | 8.52985 | 3686 ft | 228 kts | 183° |
| 2026-05-03 21:04 | 49.93009 | 8.53092 | 3913 ft | 228 kts | 183° |
| 2026-05-03 21:04 | 49.91436 | 8.53203 | 3974 ft | 225 kts | 183° |
| 2026-05-03 21:04 | 49.89873 | 8.53311 | 3993 ft | 225 kts | 183° |
| 2026-05-03 21:04 | 49.88298 | 8.53413 | 4729 ft | 225 kts | 184° |
| 2026-05-03 21:05 | 49.86769 | 8.53141 | 5762 ft | 225 kts | 198° |
| 2026-05-03 21:05 | 49.85233 | 8.52320 | 6450 ft | 240 kts | 202° |
| 2026-05-03 21:05 | 49.83649 | 8.51417 | 7400 ft | 245 kts | 202° |
| 2026-05-03 21:05 | 49.82057 | 8.50509 | 8368 ft | 249 kts | 202° |
| 2026-05-03 21:06 | 49.80419 | 8.49578 | 9383 ft | 253 kts | 202° |
| 2026-05-03 21:06 | 49.78778 | 8.48560 | 10317 ft | 256 kts | 210° |
| 2026-05-03 21:06 | 49.77364 | 8.46855 | 11096 ft | 265 kts | 226° |
| 2026-05-03 21:06 | 49.76356 | 8.44320 | 11456 ft | 292 kts | 248° |
| 2026-05-03 21:07 | 49.76066 | 8.41124 | 12056 ft | 311 kts | 271° |
| 2026-05-03 21:07 | 49.76512 | 8.37792 | 12873 ft | 320 kts | 281° |
| 2026-05-03 21:07 | 49.77066 | 8.34431 | 13733 ft | 324 kts | 282° |
| 2026-05-03 21:07 | 49.77622 | 8.31028 | 14491 ft | 328 kts | 281° |
| 2026-05-03 21:08 | 49.78178 | 8.27582 | 15237 ft | 332 kts | 281° |
| 2026-05-03 21:08 | 49.78737 | 8.24092 | 15981 ft | 336 kts | 281° |
| 2026-05-03 21:08 | 49.79302 | 8.20559 | 16730 ft | 340 kts | 281° |
| 2026-05-03 21:08 | 49.79873 | 8.16988 | 17478 ft | 344 kts | 281° |
| 2026-05-03 21:09 | 49.80449 | 8.13379 | 18251 ft | 347 kts | 280° |
| 2026-05-03 21:09 | 49.81025 | 8.09736 | 18910 ft | 350 kts | 279° |
| 2026-05-03 21:09 | 49.81606 | 8.06060 | 19576 ft | 353 kts | 279° |
| 2026-05-03 21:09 | 49.82194 | 8.02351 | 20243 ft | 356 kts | 279° |
| 2026-05-03 21:10 | 49.82786 | 7.98616 | 20912 ft | 358 kts | 279° |
| 2026-05-03 21:10 | 49.83381 | 7.94854 | 21578 ft | 361 kts | 279° |
| 2026-05-03 21:10 | 49.83977 | 7.91062 | 22234 ft | 364 kts | 278° |
| 2026-05-03 21:10 | 49.84575 | 7.87238 | 22885 ft | 367 kts | 278° |
| 2026-05-03 21:11 | 49.85175 | 7.83381 | 23524 ft | 370 kts | 278° |
| 2026-05-03 21:11 | 49.85781 | 7.79486 | 23882 ft | 373 kts | 278° |
| 2026-05-03 21:11 | 49.86387 | 7.75588 | 23977 ft | 370 kts | 278° |
| 2026-05-03 21:11 | 49.86989 | 7.71808 | 24021 ft | 353 kts | 278° |
| 2026-05-03 21:12 | 49.87568 | 7.68195 | 24003 ft | 340 kts | 278° |
| 2026-05-03 21:12 | 49.88126 | 7.64658 | 24002 ft | 337 kts | 277° |
| 2026-05-03 21:12 | 49.88674 | 7.61134 | 24005 ft | 336 kts | 277° |
| 2026-05-03 21:12 | 49.89214 | 7.57616 | 24005 ft | 335 kts | 277° |
| 2026-05-03 21:13 | 49.89748 | 7.54098 | 24006 ft | 335 kts | 277° |
| 2026-05-03 21:13 | 49.90282 | 7.50580 | 24005 ft | 335 kts | 277° |
| 2026-05-03 21:13 | 49.90817 | 7.47069 | 24005 ft | 335 kts | 277° |
| 2026-05-03 21:13 | 49.91354 | 7.43550 | 24002 ft | 335 kts | 277° |
| 2026-05-03 21:14 | 49.91891 | 7.40034 | 24005 ft | 335 kts | 277° |
| 2026-05-03 21:14 | 49.92428 | 7.36515 | 24030 ft | 335 kts | 277° |
| 2026-05-03 21:14 | 49.92964 | 7.32994 | 24030 ft | 335 kts | 277° |
| 2026-05-03 21:14 | 49.93497 | 7.29474 | 24030 ft | 335 kts | 277° |
| 2026-05-03 21:15 | 49.94030 | 7.25953 | 24038 ft | 335 kts | 277° |
| 2026-05-03 21:15 | 49.94562 | 7.22427 | 24032 ft | 336 kts | 277° |
| 2026-05-03 21:15 | 49.95095 | 7.18891 | 24026 ft | 336 kts | 277° |
| 2026-05-03 21:15 | 49.95628 | 7.15354 | 24025 ft | 337 kts | 277° |
| 2026-05-03 21:16 | 49.96159 | 7.11812 | 24024 ft | 337 kts | 277° |
| 2026-05-03 21:16 | 49.96688 | 7.08268 | 24024 ft | 337 kts | 277° |
| 2026-05-03 21:16 | 49.97214 | 7.04720 | 24018 ft | 337 kts | 277° |
| 2026-05-03 21:16 | 49.97737 | 7.01177 | 24017 ft | 337 kts | 277° |
| 2026-05-03 21:17 | 49.98262 | 6.97628 | 23987 ft | 337 kts | 277° |
| 2026-05-03 21:17 | 49.98611 | 6.95278 | 23994 ft | 337 kts | 277° |
| 2026-05-03 21:17 | 49.99222 | 6.90521 | 23994 ft | 333 kts | 270° |
| 2026-05-03 21:17 | 49.99234 | 6.86955 | 23994 ft | 329 kts | 262° |
| 2026-05-03 21:18 | 49.99121 | 6.83408 | 23997 ft | 329 kts | 263° |
| 2026-05-03 21:18 | 49.99015 | 6.79859 | 23992 ft | 329 kts | 263° |
| 2026-05-03 21:18 | 49.98912 | 6.76307 | 23989 ft | 329 kts | 263° |
| 2026-05-03 21:18 | 49.98808 | 6.72751 | 23987 ft | 330 kts | 263° |
| 2026-05-03 21:19 | 49.98699 | 6.69191 | 23983 ft | 330 kts | 263° |
| 2026-05-03 21:19 | 49.98586 | 6.65633 | 23983 ft | 330 kts | 263° |
| 2026-05-03 21:19 | 49.98512 | 6.63274 | 23983 ft | 330 kts | 263° |
| 2026-05-03 21:19 | 49.98400 | 6.59714 | 23983 ft | 330 kts | 263° |